createdAt,value
2022-11-04T00:00:35.344Z,31.50
2022-11-04T00:03:22.176Z,29.98
2022-11-04T00:05:55.277Z,29.77
2022-11-04T00:08:42.199Z,28.17
2022-11-04T00:12:01.210Z,28.75
2022-11-04T00:14:55.206Z,28.65
2022-11-04T00:17:49.207Z,27.70
2022-11-04T00:21:01.205Z,28.50
2022-11-04T00:24:06.221Z,27.08
2022-11-04T00:26:57.789Z,27.73
2022-11-04T00:29:44.186Z,30.67
2022-11-04T00:32:36.044Z,28.27
2022-11-04T00:35:24.191Z,29.00
2022-11-04T00:38:04.201Z,30.00
2022-11-04T00:40:58.270Z,27.25
2022-11-04T00:43:45.219Z,26.92
2022-11-04T00:46:18.284Z,27.17
2022-11-04T00:49:05.210Z,28.00
2022-11-04T00:51:38.290Z,28.80
2022-11-04T00:54:25.209Z,29.08
2022-11-04T00:56:58.294Z,27.90
2022-11-04T00:59:46.202Z,27.98
2022-11-04T01:02:19.429Z,28.75
2022-11-04T01:05:06.227Z,28.38
2022-11-04T01:07:43.533Z,29.73
2022-11-04T01:10:30.228Z,28.52
2022-11-04T01:13:03.305Z,28.15
2022-11-04T01:15:50.213Z,29.25
2022-11-04T01:18:23.296Z,29.98
2022-11-04T01:21:12.204Z,28.48
2022-11-04T01:23:53.262Z,29.52
2022-11-04T01:26:47.209Z,29.30
2022-11-04T01:29:34.251Z,27.75
2022-11-04T01:32:07.262Z,27.83
2022-11-04T01:34:54.220Z,27.00
2022-11-04T01:37:34.233Z,26.27
2022-11-04T01:40:21.226Z,28.08
2022-11-04T01:42:54.396Z,27.98
2022-11-04T01:45:41.251Z,27.33
2022-11-04T01:48:35.238Z,27.40
2022-11-04T01:51:32.236Z,28.88
2022-11-04T01:54:20.227Z,28.00
2022-11-04T01:56:55.315Z,29.08
2022-11-04T01:59:45.228Z,27.88
2022-11-04T02:02:18.397Z,26.65
2022-11-04T02:05:05.240Z,26.60
2022-11-04T02:07:39.316Z,28.45
2022-11-04T02:10:29.242Z,29.73
2022-11-04T02:13:12.342Z,28.40
2022-11-04T02:16:18.249Z,29.30
2022-11-04T02:19:53.234Z,26.73
2022-11-04T02:23:17.247Z,25.77
2022-11-04T02:26:13.241Z,27.30
2022-11-04T02:29:14.501Z,27.33
2022-11-04T02:32:23.232Z,26.48
2022-11-04T02:35:18.251Z,27.25
2022-11-04T02:38:18.256Z,26.70
2022-11-04T02:41:53.264Z,28.88
2022-11-04T02:44:54.248Z,26.95
2022-11-04T02:47:53.274Z,26.63
2022-11-04T02:50:55.245Z,27.17
2022-11-04T02:53:44.265Z,26.80
2022-11-04T02:56:41.250Z,26.55
2022-11-04T02:59:37.241Z,25.30
2022-11-04T03:02:15.514Z,26.13
2022-11-04T03:05:05.269Z,25.52
2022-11-04T03:07:42.399Z,26.48
2022-11-04T03:10:36.271Z,26.05
2022-11-04T03:13:26.304Z,25.70
2022-11-04T03:16:27.257Z,25.23
2022-11-04T03:19:26.265Z,24.30
2022-11-04T03:22:17.379Z,24.23
2022-11-04T03:25:04.285Z,26.50
2022-11-04T03:27:52.337Z,24.90
2022-11-04T03:30:53.269Z,25.35
2022-11-04T03:33:42.275Z,25.35
2022-11-04T03:36:37.263Z,23.60
2022-11-04T03:39:24.291Z,25.70
2022-11-04T03:42:02.348Z,25.23
2022-11-04T03:44:50.264Z,26.10
2022-11-04T03:47:25.353Z,27.60
2022-11-04T03:50:19.266Z,26.17
2022-11-04T03:52:59.286Z,27.20
2022-11-04T03:56:29.277Z,27.42
2022-11-04T03:59:46.281Z,29.35
2022-11-04T04:02:45.292Z,28.98
2022-11-04T04:05:36.296Z,26.67
2022-11-04T04:08:37.352Z,26.45
2022-11-04T04:11:46.300Z,24.50
2022-11-04T04:14:49.295Z,26.45
2022-11-04T04:18:03.281Z,24.63
2022-11-04T04:20:47.308Z,23.70
2022-11-04T04:23:56.273Z,23.23
2022-11-04T04:26:56.290Z,23.08
2022-11-04T04:29:51.283Z,24.40
2022-11-04T04:32:44.307Z,25.13
2022-11-04T04:35:37.399Z,24.38
2022-11-04T04:38:47.314Z,25.40
2022-11-04T04:41:49.296Z,24.35
2022-11-04T04:45:01.301Z,24.02
2022-11-04T04:47:58.311Z,24.77
2022-11-04T04:50:56.311Z,23.35
2022-11-04T04:53:43.314Z,24.08
2022-11-04T04:56:16.555Z,24.88
2022-11-04T04:59:03.315Z,22.05
2022-11-04T05:01:36.509Z,24.23
2022-11-04T05:04:23.315Z,24.25
2022-11-04T05:06:56.376Z,22.13
2022-11-04T05:09:43.311Z,22.85
2022-11-04T05:12:16.385Z,22.73
2022-11-04T05:15:03.310Z,21.15
2022-11-04T05:17:36.392Z,22.73
2022-11-04T05:20:23.317Z,23.42
2022-11-04T05:22:56.366Z,22.70
2022-11-04T05:25:43.319Z,20.75
2022-11-04T05:28:23.317Z,20.05
2022-11-04T05:31:18.327Z,19.88
2022-11-04T05:34:12.307Z,21.80
2022-11-04T05:36:59.326Z,21.90
2022-11-04T05:39:32.396Z,18.77
2022-11-04T05:42:19.323Z,21.25
2022-11-04T05:44:59.322Z,21.17
2022-11-04T05:47:53.324Z,21.63
2022-11-04T05:50:47.448Z,20.88
2022-11-04T05:53:34.340Z,19.13
2022-11-04T05:56:14.347Z,20.25
2022-11-04T05:59:08.331Z,21.27
2022-11-04T06:02:02.401Z,24.80
2022-11-04T06:04:49.344Z,22.85
2022-11-04T06:07:29.322Z,22.70
2022-11-04T06:10:16.362Z,20.67
2022-11-04T06:12:56.337Z,21.90
2022-11-04T06:15:50.353Z,21.92
2022-11-04T06:18:44.326Z,21.63
2022-11-04T06:21:38.325Z,20.17
2022-11-04T06:24:18.337Z,22.30
2022-11-04T06:27:12.336Z,20.70
2022-11-04T06:30:00.340Z,21.70
2022-11-04T06:32:33.402Z,24.65
2022-11-04T06:35:20.361Z,21.52
2022-11-04T06:37:53.411Z,22.98
2022-11-04T06:40:40.335Z,27.42
2022-11-04T06:43:20.360Z,23.48
2022-11-04T06:46:08.349Z,23.63
2022-11-04T06:48:48.354Z,23.13
2022-11-04T06:51:37.352Z,21.33
2022-11-04T06:54:10.412Z,21.90
2022-11-04T06:56:57.355Z,21.88
2022-11-04T06:59:30.423Z,19.95
2022-11-04T07:02:17.470Z,20.38
2022-11-04T07:04:50.472Z,22.92
2022-11-04T07:07:37.373Z,22.25
2022-11-04T07:10:10.511Z,23.20
2022-11-04T07:13:04.358Z,26.45
2022-11-04T07:15:58.365Z,26.60
2022-11-04T07:18:52.346Z,22.77
2022-11-04T07:21:46.376Z,23.33
2022-11-04T07:24:33.366Z,22.20
2022-11-04T07:27:07.679Z,21.42
2022-11-04T07:29:54.365Z,20.63
2022-11-04T07:32:27.431Z,22.33
2022-11-04T07:35:14.330Z,21.85
2022-11-04T07:37:54.354Z,19.85
2022-11-04T07:40:48.368Z,23.80
2022-11-04T07:43:36.368Z,21.73
2022-11-04T07:46:12.462Z,22.17
2022-11-04T07:48:59.370Z,21.95
2022-11-04T07:51:40.361Z,21.00
2022-11-04T07:54:27.386Z,20.98
2022-11-04T07:57:00.452Z,20.50
2022-11-04T07:59:47.396Z,20.08
2022-11-04T08:02:25.815Z,17.92
2022-11-04T08:05:14.369Z,18.92
2022-11-04T08:07:48.463Z,18.63
2022-11-04T08:10:35.373Z,17.58
2022-11-04T08:13:08.620Z,18.67
2022-11-04T08:15:55.375Z,19.30
2022-11-04T08:18:28.447Z,19.65
2022-11-04T08:21:16.385Z,18.77
2022-11-04T08:23:53.657Z,17.35
2022-11-04T08:26:40.401Z,18.08
2022-11-04T08:29:21.384Z,18.92
2022-11-04T08:32:08.410Z,19.65
2022-11-04T08:34:48.387Z,18.95
2022-11-04T08:37:42.405Z,21.15
2022-11-04T08:40:32.396Z,18.25
2022-11-04T08:43:05.494Z,18.08
2022-11-04T08:45:53.406Z,19.55
2022-11-04T08:48:26.475Z,18.58
2022-11-04T08:51:18.392Z,17.73
2022-11-04T08:53:54.749Z,18.70
2022-11-04T08:56:43.404Z,18.60
2022-11-04T08:59:17.288Z,18.63
2022-11-04T09:02:04.461Z,21.42
2022-11-04T09:04:44.435Z,20.90
2022-11-04T09:07:38.408Z,18.27
2022-11-04T09:10:25.394Z,19.15
2022-11-04T09:12:58.487Z,18.10
2022-11-04T09:15:45.424Z,17.58
2022-11-04T09:18:25.431Z,18.13
2022-11-04T09:21:13.425Z,20.13
2022-11-04T09:23:53.404Z,17.65
2022-11-04T09:26:47.411Z,19.13
2022-11-04T09:29:34.411Z,18.45
2022-11-04T09:32:14.441Z,18.65
2022-11-04T09:35:01.401Z,19.20
2022-11-04T09:37:41.431Z,21.65
2022-11-04T09:40:38.438Z,22.55
2022-11-04T09:43:58.443Z,21.40
2022-11-04T09:46:54.424Z,24.63
2022-11-04T09:49:45.428Z,22.25
2022-11-04T09:52:34.440Z,21.95
2022-11-04T09:56:02.433Z,24.02
2022-11-04T09:58:41.523Z,21.92
2022-11-04T10:01:34.607Z,22.92
2022-11-04T10:04:37.441Z,23.90
2022-11-04T10:07:46.437Z,23.77
2022-11-04T10:10:46.447Z,23.65
2022-11-04T10:14:15.443Z,21.92
2022-11-04T10:17:29.448Z,21.63
2022-11-04T10:20:44.017Z,20.92
2022-11-04T10:23:52.470Z,22.02
2022-11-04T10:27:16.480Z,20.23
2022-11-04T10:30:10.456Z,20.40
2022-11-04T10:32:59.471Z,20.00
2022-11-04T10:36:06.455Z,20.20
2022-11-04T10:39:06.441Z,20.45
2022-11-04T10:42:00.441Z,17.60
2022-11-04T10:44:54.466Z,21.17
2022-11-04T10:47:53.429Z,20.80
2022-11-04T10:50:41.540Z,20.27
2022-11-04T10:53:39.448Z,19.77
2022-11-04T10:56:51.530Z,21.90
2022-11-04T11:00:21.458Z,22.92
2022-11-04T11:03:08.608Z,19.77
2022-11-04T11:05:48.474Z,22.27
2022-11-04T11:08:47.460Z,22.65
2022-11-04T11:11:52.473Z,20.15
2022-11-04T11:14:50.482Z,22.55
2022-11-04T11:17:46.468Z,23.67
2022-11-04T11:20:33.455Z,20.70
2022-11-04T11:23:09.987Z,21.83
2022-11-04T11:25:57.460Z,23.42
2022-11-04T11:28:38.076Z,20.42
2022-11-04T11:31:30.541Z,19.98
2022-11-04T11:34:07.581Z,22.20
2022-11-04T11:36:55.486Z,21.98
2022-11-04T11:39:44.467Z,20.58
2022-11-04T11:42:32.489Z,20.55
2022-11-04T11:45:10.817Z,20.60
2022-11-04T11:48:01.496Z,20.20
2022-11-04T11:50:36.562Z,22.65
2022-11-04T11:53:26.501Z,22.30
2022-11-04T11:56:09.579Z,21.23
2022-11-04T12:02:34.646Z,22.33
2022-11-04T12:12:19.490Z,23.05
2022-11-04T12:15:40.493Z,23.63
2022-11-04T12:18:55.488Z,23.45
2022-11-04T12:21:57.493Z,25.00
2022-11-04T12:24:53.492Z,21.60
2022-11-04T12:27:57.571Z,21.00
2022-11-04T12:31:15.498Z,24.55
2022-11-04T12:34:14.758Z,21.45
2022-11-04T12:37:25.499Z,21.92
2022-11-04T12:40:26.507Z,21.38
2022-11-04T12:43:13.506Z,20.70
2022-11-04T12:45:56.533Z,21.58
2022-11-04T12:49:00.770Z,23.50
2022-11-04T12:51:59.490Z,23.75
2022-11-04T12:55:30.524Z,23.25
2022-11-04T12:58:36.509Z,23.38
2022-11-04T13:01:39.631Z,23.75
2022-11-04T13:04:43.497Z,21.08
2022-11-04T13:07:37.552Z,22.38
2022-11-04T13:10:25.578Z,24.58
2022-11-04T13:13:21.540Z,19.55
2022-11-04T13:16:17.527Z,21.40
2022-11-04T13:18:51.860Z,23.75
2022-11-04T13:21:43.526Z,24.60
2022-11-04T13:24:35.069Z,22.45
2022-11-04T13:27:35.534Z,20.92
2022-11-04T13:30:25.761Z,23.83
2022-11-04T13:33:24.539Z,19.08
2022-11-04T13:36:31.532Z,20.10
2022-11-04T13:39:25.536Z,20.95
2022-11-04T13:42:30.592Z,18.27
2022-11-04T13:45:10.628Z,19.40
2022-11-04T13:48:00.527Z,19.42
2022-11-04T13:50:58.519Z,21.02
2022-11-04T13:53:56.578Z,21.27
2022-11-04T13:56:54.546Z,20.60
2022-11-04T13:59:48.595Z,21.77
2022-11-04T14:02:54.639Z,18.85
2022-11-04T14:05:41.587Z,19.27
2022-11-04T14:08:35.559Z,18.80
2022-11-04T14:11:22.574Z,22.60
2022-11-04T14:14:08.624Z,19.45
2022-11-04T14:16:55.530Z,19.27
2022-11-04T14:20:02.595Z,17.58
2022-11-04T14:22:49.547Z,17.02
2022-11-04T14:25:41.565Z,20.20
2022-11-04T14:28:41.556Z,18.80
2022-11-04T14:31:50.556Z,17.92
2022-11-04T14:34:41.573Z,17.60
2022-11-04T14:37:35.572Z,18.33
2022-11-04T14:40:40.561Z,20.15
2022-11-04T14:43:38.561Z,21.40
2022-11-04T14:46:19.578Z,19.15
2022-11-04T14:49:08.562Z,19.48
2022-11-04T14:51:54.568Z,21.00
2022-11-04T14:54:43.570Z,20.58
2022-11-04T14:57:41.785Z,18.65
2022-11-04T15:00:46.641Z,19.52
2022-11-04T15:04:09.472Z,19.02
2022-11-04T15:06:53.545Z,21.08
2022-11-04T15:09:46.593Z,28.40
2022-11-04T15:12:51.581Z,22.88
2022-11-04T15:15:35.598Z,21.15
2022-11-04T15:18:28.495Z,21.90
2022-11-04T15:21:04.630Z,19.92
2022-11-04T15:23:59.587Z,20.27
2022-11-04T15:26:36.246Z,20.75
2022-11-04T15:29:24.606Z,24.95
2022-11-04T15:32:05.456Z,22.42
2022-11-04T15:34:52.580Z,25.15
2022-11-04T15:37:35.584Z,25.67
2022-11-04T15:40:30.582Z,23.60
2022-11-04T15:43:17.554Z,23.17
2022-11-04T15:46:00.588Z,23.40
2022-11-04T15:48:55.610Z,24.48
2022-11-04T15:51:54.586Z,24.27
2022-11-04T15:54:42.599Z,23.15
2022-11-04T15:57:22.702Z,23.58
2022-11-04T16:00:34.583Z,28.15
2022-11-04T16:03:09.893Z,28.05
2022-11-04T16:06:13.597Z,28.13
2022-11-04T16:08:46.702Z,29.90
2022-11-04T16:11:33.611Z,34.45
2022-11-04T16:14:29.698Z,32.78
2022-11-04T16:17:17.593Z,32.33
2022-11-04T16:20:09.591Z,29.55
2022-11-04T16:23:02.612Z,25.58
2022-11-04T16:25:39.764Z,27.85
2022-11-04T16:28:27.676Z,31.95
2022-11-04T16:31:17.612Z,39.13
2022-11-04T16:34:11.668Z,38.83
2022-11-04T16:37:05.678Z,43.63
2022-11-04T16:39:59.654Z,42.28
2022-11-04T16:42:53.676Z,36.38
2022-11-04T16:45:53.570Z,35.55
2022-11-04T16:48:40.644Z,38.70
2022-11-04T16:51:23.620Z,33.45
2022-11-04T16:54:17.677Z,39.70
2022-11-04T16:57:06.626Z,41.97
2022-11-04T16:59:40.642Z,37.13
2022-11-04T17:02:38.723Z,32.78
2022-11-04T17:05:19.620Z,39.25
2022-11-04T17:08:13.691Z,34.00
2022-11-04T17:11:00.633Z,30.13
2022-11-04T17:13:36.542Z,28.40
2022-11-04T17:16:26.638Z,27.55
2022-11-04T17:18:59.711Z,28.30
2022-11-04T17:21:46.717Z,31.38
2022-11-04T17:24:27.685Z,32.72
2022-11-04T17:27:21.677Z,31.50
2022-11-04T17:30:08.634Z,32.83
2022-11-04T17:32:41.766Z,32.65
2022-11-04T17:35:28.653Z,33.60
2022-11-04T17:38:01.700Z,35.05
2022-11-04T17:41:07.678Z,32.85
2022-11-04T17:43:59.254Z,29.85
2022-11-04T17:46:49.677Z,26.15
2022-11-04T17:49:31.853Z,26.05
2022-11-04T17:52:18.747Z,22.55
2022-11-04T17:54:58.699Z,21.92
2022-11-04T17:57:45.677Z,23.88
2022-11-04T18:00:30.706Z,25.90
2022-11-04T18:03:26.647Z,24.90
2022-11-04T18:06:13.681Z,25.27
2022-11-04T18:08:46.909Z,24.60
2022-11-04T18:11:54.707Z,22.27
2022-11-04T18:14:35.675Z,23.98
2022-11-04T18:17:31.680Z,25.63
2022-11-04T18:20:21.681Z,25.08
2022-11-04T18:22:54.791Z,28.40
2022-11-04T18:25:44.550Z,25.50
2022-11-04T18:28:26.700Z,27.20
2022-11-04T18:31:24.707Z,26.17
2022-11-04T18:34:14.704Z,23.98
2022-11-04T18:36:54.708Z,23.58
2022-11-04T18:39:41.679Z,23.45
2022-11-04T18:42:14.818Z,24.20
2022-11-04T18:45:01.679Z,22.23
2022-11-04T18:47:34.825Z,23.15
2022-11-04T18:50:21.681Z,23.98
2022-11-04T18:52:55.499Z,22.48
2022-11-04T18:55:42.703Z,24.60
2022-11-04T18:58:15.773Z,25.50
2022-11-04T19:01:02.783Z,26.25
2022-11-04T19:03:35.819Z,29.13
2022-11-04T19:06:28.707Z,25.25
2022-11-04T19:09:13.408Z,26.75
2022-11-04T19:12:23.868Z,29.20
2022-11-04T19:15:03.685Z,26.90
2022-11-04T19:17:57.693Z,29.27
2022-11-04T19:20:44.720Z,27.55
2022-11-04T19:23:25.702Z,28.10
2022-11-04T19:26:17.687Z,27.65
2022-11-04T19:28:52.998Z,28.52
2022-11-04T19:31:43.469Z,27.98
2022-11-04T19:34:23.694Z,28.05
2022-11-04T19:37:10.766Z,40.92
2022-11-04T19:39:44.801Z,37.83
2022-11-04T19:42:49.703Z,36.67
2022-11-04T19:45:33.415Z,32.80
2022-11-04T19:48:26.709Z,34.13
2022-11-04T19:51:31.597Z,34.53
2022-11-04T19:54:26.710Z,35.83
2022-11-04T19:57:16.981Z,32.85
2022-11-04T19:59:49.944Z,33.50
2022-11-04T20:02:37.832Z,34.10
2022-11-04T20:05:11.861Z,34.47
2022-11-04T20:08:06.533Z,34.90
2022-11-04T20:10:42.880Z,35.33
2022-11-04T20:13:47.710Z,37.60
2022-11-04T20:16:31.873Z,35.92
2022-11-04T20:19:22.685Z,37.50
2022-11-04T20:21:56.831Z,41.05
2022-11-04T20:24:43.711Z,41.22
2022-11-04T20:27:23.710Z,44.13
2022-11-04T20:30:10.751Z,44.80
2022-11-04T20:32:50.764Z,40.30
2022-11-04T20:35:44.753Z,41.35
2022-11-04T20:38:33.683Z,39.10
2022-11-04T20:41:18.541Z,45.53
2022-11-04T20:44:05.786Z,43.30
2022-11-04T20:46:39.880Z,44.05
2022-11-04T20:49:26.761Z,43.97
2022-11-04T20:52:06.745Z,44.28
2022-11-04T20:55:00.779Z,43.38
2022-11-04T20:57:47.778Z,41.92
2022-11-04T21:00:21.289Z,37.58
2022-11-04T21:03:07.780Z,36.17
2022-11-04T21:05:41.628Z,35.38
2022-11-04T21:08:28.796Z,34.30
2022-11-04T21:11:02.831Z,38.90
2022-11-04T21:13:51.541Z,39.03
2022-11-04T21:16:24.838Z,43.63
2022-11-04T21:19:11.778Z,39.83
2022-11-04T21:21:47.531Z,36.80
2022-11-04T21:24:39.358Z,34.78
2022-11-04T21:27:12.937Z,38.10
2022-11-04T21:29:59.775Z,39.33
2022-11-04T21:32:32.827Z,39.03
2022-11-04T21:35:19.799Z,44.38
2022-11-04T21:37:52.845Z,41.78
2022-11-04T21:40:40.790Z,37.40
2022-11-04T21:43:20.796Z,37.28
2022-11-04T21:46:14.746Z,36.85
2022-11-04T21:48:55.802Z,35.17
2022-11-04T21:51:42.804Z,35.63
2022-11-04T21:54:25.786Z,34.22
2022-11-04T21:57:12.840Z,34.92
2022-11-04T21:59:53.779Z,33.03
2022-11-04T22:02:48.904Z,33.47
2022-11-04T22:05:31.544Z,35.58
2022-11-04T22:08:25.778Z,36.97
2022-11-04T22:11:05.777Z,34.13
2022-11-04T22:13:53.779Z,34.33
2022-11-04T22:16:35.781Z,33.35
2022-11-04T22:19:31.838Z,32.03
2022-11-04T22:22:27.782Z,33.03
2022-11-04T22:25:14.796Z,35.38
2022-11-04T22:27:47.865Z,34.35
2022-11-04T22:30:35.783Z,34.00
2022-11-04T22:33:09.087Z,35.95
2022-11-04T22:35:57.796Z,34.78
2022-11-04T22:38:30.869Z,35.25
2022-11-04T22:41:21.799Z,36.13
2022-11-04T22:44:03.781Z,36.35
2022-11-04T22:46:59.315Z,36.13
2022-11-04T22:49:55.785Z,37.30
2022-11-04T22:52:42.806Z,35.17
2022-11-04T22:55:23.825Z,33.05
2022-11-04T22:58:17.823Z,33.60
2022-11-04T23:01:14.999Z,35.50
2022-11-04T23:04:11.939Z,34.22
2022-11-04T23:06:58.807Z,36.35
2022-11-04T23:09:33.048Z,33.25
2022-11-04T23:12:38.817Z,32.42
2022-11-04T23:15:30.356Z,33.60
2022-11-04T23:18:36.812Z,37.60
2022-11-04T23:21:28.108Z,34.25
2022-11-04T23:24:33.820Z,33.60
2022-11-04T23:27:17.971Z,35.40
2022-11-04T23:30:28.811Z,33.70
2022-11-04T23:33:17.825Z,34.08
2022-11-04T23:36:14.257Z,33.83
2022-11-04T23:39:00.825Z,34.80
2022-11-04T23:41:52.337Z,34.83
2022-11-04T23:44:56.816Z,34.95
2022-11-04T23:47:48.411Z,34.33
2022-11-04T23:50:55.852Z,33.38
2022-11-04T23:53:47.496Z,32.85
2022-11-04T23:56:52.815Z,31.90
2022-11-04T23:59:50.828Z,32.03
